createdAt,value
2023-02-15T00:00:20.445Z,78.000000
2023-02-15T00:05:25.697Z,78.285714
2023-02-15T00:10:26.730Z,78.800000
2023-02-15T00:15:29.860Z,79.153846
2023-02-15T00:20:20.808Z,80.000000
2023-02-15T00:25:25.570Z,80.000000
2023-02-15T00:30:27.530Z,80.600000
2023-02-15T00:35:25.629Z,81.000000
2023-02-15T00:40:22.458Z,81.000000
2023-02-15T00:45:24.663Z,81.400000
2023-02-15T00:50:27.755Z,82.000000
2023-02-15T00:55:18.802Z,82.083333
2023-02-15T01:00:21.893Z,82.000000
2023-02-15T01:05:26.200Z,81.538462
2023-02-15T01:10:28.201Z,81.666667
2023-02-15T01:15:19.183Z,81.727273
2023-02-15T01:20:22.385Z,81.000000
2023-02-15T01:25:26.112Z,81.000000
2023-02-15T01:30:28.764Z,81.000000
2023-02-15T01:35:19.778Z,80.750000
2023-02-15T01:40:23.115Z,80.181818
2023-02-15T01:45:26.581Z,80.000000
2023-02-15T01:50:29.159Z,80.000000
2023-02-15T01:55:20.213Z,80.000000
2023-02-15T02:00:23.465Z,80.000000
2023-02-15T02:05:26.641Z,80.000000
2023-02-15T02:10:26.564Z,80.600000
2023-02-15T02:15:20.553Z,81.000000
2023-02-15T02:20:26.549Z,81.000000
2023-02-15T02:25:27.014Z,81.000000
2023-02-15T02:30:26.816Z,81.000000
2023-02-15T02:35:21.091Z,81.000000
2023-02-15T02:40:27.090Z,81.000000
2023-02-15T02:45:27.453Z,81.000000
2023-02-15T02:50:27.128Z,81.000000
2023-02-15T02:55:21.595Z,81.000000
2023-02-15T03:00:27.081Z,81.000000
2023-02-15T03:05:27.846Z,81.166667
2023-02-15T03:10:18.900Z,82.000000
2023-02-15T03:15:22.119Z,82.000000
2023-02-15T03:20:27.112Z,82.000000
2023-02-15T03:25:28.408Z,82.181818
2023-02-15T03:30:19.610Z,82.000000
2023-02-15T03:35:22.588Z,82.000000
2023-02-15T03:40:27.584Z,82.000000
2023-02-15T03:45:28.857Z,83.000000
2023-02-15T03:50:19.972Z,83.000000
2023-02-15T03:55:23.012Z,83.000000
2023-02-15T04:00:27.530Z,83.000000
2023-02-15T04:05:29.261Z,83.230769
2023-02-15T04:10:20.252Z,83.000000
2023-02-15T04:15:23.427Z,83.000000
2023-02-15T04:20:27.631Z,83.000000
2023-02-15T04:25:29.846Z,83.000000
2023-02-15T04:30:20.874Z,83.000000
2023-02-15T04:35:24.164Z,82.272727
2023-02-15T04:40:28.105Z,82.090909
2023-02-15T04:45:30.276Z,83.000000
2023-02-15T04:50:21.212Z,83.000000
2023-02-15T04:55:24.606Z,82.750000
2023-02-15T05:00:28.021Z,82.250000
2023-02-15T05:05:30.615Z,82.444444
2023-02-15T05:10:21.877Z,83.000000
2023-02-15T05:15:24.768Z,83.000000
2023-02-15T05:20:27.848Z,83.000000
2023-02-15T05:25:19.163Z,83.000000
2023-02-15T05:30:22.378Z,83.000000
2023-02-15T05:35:28.053Z,83.000000
2023-02-15T05:40:28.460Z,83.000000
2023-02-15T05:45:19.553Z,83.000000
2023-02-15T05:50:22.607Z,82.583333
2023-02-15T05:55:28.525Z,82.555556
2023-02-15T06:00:28.975Z,82.000000
2023-02-15T06:05:19.877Z,81.250000
2023-02-15T06:10:23.072Z,81.000000
2023-02-15T06:15:28.600Z,80.909091
2023-02-15T06:20:29.349Z,80.625000
2023-02-15T06:25:20.717Z,79.888889
2023-02-15T06:30:24.019Z,79.454545
2023-02-15T06:35:28.635Z,79.090909
2023-02-15T06:40:30.138Z,78.428571
2023-02-15T06:45:21.203Z,77.888889
2023-02-15T06:50:24.330Z,77.076923
2023-02-15T06:55:29.048Z,77.000000
2023-02-15T07:00:30.678Z,76.181818
2023-02-15T07:05:21.525Z,76.181818
2023-02-15T07:10:25.220Z,76.000000
2023-02-15T07:15:29.005Z,75.444444
2023-02-15T07:20:18.954Z,75.333333
2023-02-15T07:25:22.338Z,74.636364
2023-02-15T07:30:25.568Z,74.454545
2023-02-15T07:35:29.062Z,74.166667
2023-02-15T07:40:19.606Z,74.000000
2023-02-15T07:45:22.689Z,73.916667
2023-02-15T07:50:25.993Z,72.900000
2023-02-15T07:55:29.027Z,72.090909
2023-02-15T08:00:19.970Z,72.111111
2023-02-15T08:05:23.309Z,71.909091
2023-02-15T08:10:26.358Z,71.100000
2023-02-15T08:15:29.481Z,71.666667
2023-02-15T08:20:20.450Z,71.636364
2023-02-15T08:25:24.067Z,71.700000
2023-02-15T08:30:27.231Z,71.300000
2023-02-15T08:35:30.238Z,69.666667
2023-02-15T08:40:21.306Z,69.333333
2023-02-15T08:45:24.452Z,68.625000
2023-02-15T08:50:27.810Z,69.454545
2023-02-15T08:55:30.728Z,68.700000
2023-02-15T09:00:21.626Z,69.666667
2023-02-15T09:05:24.907Z,69.428571
2023-02-15T09:10:30.056Z,67.916667
2023-02-15T09:15:19.078Z,67.636364
2023-02-15T09:20:22.105Z,67.400000
2023-02-15T09:25:25.759Z,66.444444
2023-02-15T09:30:29.185Z,66.181818
2023-02-15T09:35:19.855Z,65.181818
2023-02-15T09:40:23.023Z,64.800000
2023-02-15T09:45:26.165Z,63.666667
2023-02-15T09:50:29.306Z,64.181818
2023-02-15T09:55:20.216Z,65.666667
2023-02-15T10:00:23.480Z,65.111111
2023-02-15T10:05:26.596Z,64.181818
2023-02-15T10:10:30.426Z,64.500000
2023-02-15T10:15:20.734Z,64.700000
2023-02-15T10:20:23.750Z,63.900000
2023-02-15T10:25:27.414Z,62.909091
2023-02-15T10:30:32.535Z,62.000000
2023-02-15T10:35:21.560Z,62.111111
2023-02-15T10:40:18.904Z,62.800000
2023-02-15T10:45:19.052Z,63.181818
2023-02-15T10:50:18.924Z,62.100000
2023-02-15T10:55:18.994Z,58.800000
2023-02-15T11:00:18.764Z,59.666667
2023-02-15T11:05:18.894Z,60.545455
2023-02-15T11:10:19.436Z,60.000000
2023-02-15T11:15:18.926Z,58.416667
2023-02-15T11:20:18.996Z,59.666667
2023-02-15T11:25:18.978Z,60.818182
2023-02-15T11:30:20.340Z,60.416667
2023-02-15T11:35:18.794Z,60.500000
2023-02-15T11:40:19.380Z,61.714286
2023-02-15T11:45:19.295Z,60.500000
2023-02-15T11:50:20.627Z,60.000000
2023-02-15T11:55:19.349Z,59.300000
2023-02-15T12:00:19.463Z,61.500000
2023-02-15T12:05:19.404Z,62.545455
2023-02-15T12:10:20.912Z,62.909091
2023-02-15T12:15:19.404Z,62.375000
2023-02-15T12:20:19.359Z,59.909091
2023-02-15T12:25:19.358Z,61.200000
2023-02-15T12:30:21.963Z,61.875000
2023-02-15T12:35:19.364Z,61.727273
2023-02-15T12:40:30.288Z,60.500000
2023-02-15T12:45:19.974Z,59.727273
2023-02-15T12:50:22.275Z,58.600000
2023-02-15T12:55:25.474Z,58.272727
2023-02-15T13:00:19.851Z,57.636364
2023-02-15T13:05:19.778Z,56.555556
2023-02-15T13:10:22.667Z,56.000000
2023-02-15T13:15:19.755Z,57.181818
2023-02-15T13:20:19.820Z,58.100000
2023-02-15T13:25:20.426Z,56.900000
2023-02-15T13:30:20.113Z,56.083333
2023-02-15T13:35:19.930Z,56.636364
2023-02-15T13:40:20.311Z,56.800000
2023-02-15T13:45:20.819Z,57.777778
2023-02-15T13:50:20.269Z,57.615385
2023-02-15T13:55:27.156Z,56.363636
2023-02-15T14:00:20.529Z,53.181818
2023-02-15T14:05:23.303Z,54.777778
2023-02-15T14:10:20.293Z,56.500000
2023-02-15T14:15:20.279Z,58.363636
2023-02-15T14:20:20.292Z,59.545455
2023-02-15T14:25:21.757Z,59.272727
2023-02-15T14:30:20.407Z,59.666667
2023-02-15T14:35:20.224Z,60.800000
2023-02-15T14:40:20.648Z,61.833333
2023-02-15T14:45:22.198Z,62.500000
2023-02-15T14:50:20.946Z,63.000000
2023-02-15T14:55:28.771Z,63.000000
2023-02-15T15:00:20.741Z,64.250000
2023-02-15T15:05:22.596Z,64.888889
2023-02-15T15:10:20.777Z,65.200000
2023-02-15T15:15:20.863Z,66.000000
2023-02-15T15:20:19.768Z,66.500000
2023-02-15T15:25:23.494Z,67.300000
2023-02-15T15:30:20.764Z,68.384615
2023-02-15T15:35:20.750Z,69.416667
2023-02-15T15:40:21.142Z,70.090909
2023-02-15T15:45:23.898Z,71.000000
2023-02-15T15:50:21.226Z,71.600000
2023-02-15T15:55:33.131Z,72.000000
2023-02-15T16:00:21.258Z,72.916667
2023-02-15T16:05:21.437Z,73.700000
2023-02-15T16:10:27.449Z,74.454545
2023-02-15T16:15:21.152Z,75.000000
2023-02-15T16:20:21.593Z,76.166667
2023-02-15T16:25:21.227Z,77.083333
2023-02-15T16:30:21.402Z,77.153846
2023-02-15T16:35:21.348Z,77.000000
2023-02-15T16:40:22.475Z,77.916667
2023-02-15T16:45:25.555Z,77.375000
2023-02-15T16:50:21.685Z,77.000000
2023-02-15T16:55:21.600Z,76.200000
2023-02-15T17:00:22.970Z,76.909091
2023-02-15T17:05:21.677Z,77.000000
2023-02-15T17:10:21.646Z,77.000000
2023-02-15T17:15:21.535Z,77.000000
2023-02-15T17:20:23.236Z,77.000000
2023-02-15T17:25:21.661Z,77.000000
2023-02-15T17:30:21.732Z,77.500000
2023-02-15T17:35:21.677Z,77.500000
2023-02-15T17:40:24.135Z,77.000000
2023-02-15T17:45:22.247Z,77.000000
2023-02-15T17:50:30.475Z,77.000000
2023-02-15T17:55:21.993Z,77.000000
2023-02-15T18:00:24.590Z,77.000000
2023-02-15T18:05:27.722Z,77.181818
2023-02-15T18:10:22.069Z,78.000000
2023-02-15T18:15:21.835Z,78.000000
2023-02-15T18:20:25.024Z,78.333333
2023-02-15T18:25:22.142Z,79.000000
2023-02-15T18:30:22.061Z,78.333333
2023-02-15T18:35:22.713Z,78.000000
2023-02-15T18:40:22.485Z,78.000000
2023-02-15T18:45:28.855Z,77.909091
2023-02-15T18:50:22.484Z,77.363636
2023-02-15T18:55:23.020Z,77.000000
2023-02-15T19:00:22.495Z,78.000000
2023-02-15T19:05:22.434Z,78.700000
2023-02-15T19:10:22.425Z,78.888889
2023-02-15T19:15:23.528Z,78.300000
2023-02-15T19:20:22.498Z,78.000000
2023-02-15T19:25:22.493Z,78.000000
2023-02-15T19:30:21.186Z,77.230769
2023-02-15T19:35:24.232Z,77.000000
2023-02-15T19:40:27.362Z,77.000000
2023-02-15T19:45:22.950Z,76.750000
2023-02-15T19:50:23.231Z,76.416667
2023-02-15T19:55:24.652Z,77.000000
2023-02-15T20:00:23.173Z,76.250000
2023-02-15T20:05:18.761Z,76.000000
2023-02-15T20:10:22.916Z,76.000000
2023-02-15T20:15:25.130Z,75.000000
2023-02-15T20:20:23.000Z,75.800000
2023-02-15T20:25:19.524Z,76.000000
2023-02-15T20:30:23.125Z,76.916667
2023-02-15T20:35:25.770Z,76.250000
2023-02-15T20:40:23.440Z,75.076923
2023-02-15T20:45:19.891Z,75.400000
2023-02-15T20:50:23.495Z,76.000000
2023-02-15T20:55:26.209Z,77.000000
2023-02-15T21:00:23.452Z,77.181818
2023-02-15T21:05:20.394Z,78.000000
2023-02-15T21:10:23.472Z,78.000000
2023-02-15T21:15:23.507Z,78.000000
2023-02-15T21:20:29.819Z,78.000000
2023-02-15T21:25:23.544Z,78.000000
2023-02-15T21:30:24.524Z,78.000000
2023-02-15T21:35:23.444Z,78.111111
2023-02-15T21:40:23.888Z,78.818182
2023-02-15T21:45:23.840Z,79.909091
2023-02-15T21:50:24.636Z,79.888889
2023-02-15T21:55:23.926Z,79.000000
2023-02-15T22:00:18.832Z,78.200000
2023-02-15T22:05:24.332Z,77.636364
2023-02-15T22:10:25.126Z,77.000000
2023-02-15T22:15:23.861Z,76.000000
2023-02-15T22:20:19.122Z,75.250000
2023-02-15T22:25:23.897Z,76.000000
2023-02-15T22:30:25.940Z,76.000000
2023-02-15T22:35:28.962Z,76.000000
2023-02-15T22:40:20.027Z,76.000000
2023-02-15T22:45:24.327Z,75.700000
2023-02-15T22:50:26.163Z,75.272727
2023-02-15T22:55:24.289Z,75.000000
2023-02-15T23:00:20.354Z,75.000000
2023-02-15T23:05:24.578Z,75.000000
2023-02-15T23:10:26.826Z,74.500000
2023-02-15T23:15:24.380Z,74.000000
2023-02-15T23:20:20.767Z,74.250000
2023-02-15T23:25:24.311Z,74.400000
2023-02-15T23:30:24.501Z,74.500000
2023-02-15T23:35:24.312Z,74.000000
2023-02-15T23:40:21.470Z,74.000000
2023-02-15T23:45:24.789Z,74.000000
2023-02-15T23:50:24.790Z,74.545455
2023-02-15T23:55:18.773Z,75.000000
